Time;durP1;ratioP1;P1;durP2;ratioP2;P2;SDS_P1;SDS_P2;PMS_P1;PMS_P2;Temp;Humidity;BMP_temperature;BMP_pressure;BME280_temperature;BME280_humidity;BME280_pressure;Samples;Min_cycle;Max_cycle;Signal;HPM_P1;HPM_P2
2022/05/22 00:00:33;;;;;;;5.55;3.50;;;14.10;99.90;;;;;;5001973;28;20199;-81
2022/05/22 00:03:00;;;;;;;5.72;3.92;;;14.10;99.90;;;;;;5019580;28;20228;-81
2022/05/22 00:05:29;;;;;;;4.07;3.67;;;14.00;99.90;;;;;;4992477;28;20236;-80
2022/05/22 00:07:57;;;;;;;7.07;4.05;;;14.00;99.90;;;;;;5025049;28;20702;-81
2022/05/22 00:10:28;;;;;;;5.25;3.92;;;14.00;99.90;;;;;;4997571;28;20717;-82
2022/05/22 00:12:55;;;;;;;4.93;3.85;;;13.90;99.90;;;;;;5008605;28;20208;-81
2022/05/22 00:15:23;;;;;;;7.95;3.90;;;13.90;99.90;;;;;;4993957;28;20228;-81
2022/05/22 00:17:50;;;;;;;6.43;3.50;;;14.00;99.90;;;;;;5002274;28;20208;-80
2022/05/22 00:20:19;;;;;;;7.07;4.00;;;14.00;99.90;;;;;;4993524;28;20196;-80
2022/05/22 00:22:48;;;;;;;7.72;4.05;;;14.00;99.90;;;;;;4992549;28;20217;-80
2022/05/22 00:25:18;;;;;;;4.65;3.83;;;14.00;99.90;;;;;;4997261;28;20223;-83
2022/05/22 00:27:45;;;;;;;8.90;4.05;;;14.00;99.90;;;;;;4997863;28;20677;-82
2022/05/22 00:30:15;;;;;;;7.10;3.88;;;14.10;99.90;;;;;;5029317;28;20477;-80
2022/05/22 00:32:52;;;;;;;6.72;3.65;;;14.00;99.90;;;;;;4997532;28;20184;-81
2022/05/22 00:35:19;;;;;;;4.70;3.90;;;14.00;99.90;;;;;;5027933;28;20220;-81
2022/05/22 00:37:48;;;;;;;6.20;4.00;;;13.90;99.90;;;;;;5012228;28;20216;-80
2022/05/22 00:40:15;;;;;;;6.78;3.80;;;14.00;99.90;;;;;;5003610;28;20207;-81
2022/05/22 00:42:45;;;;;;;6.20;4.00;;;14.20;99.90;;;;;;5008749;28;20224;-80
2022/05/22 00:45:14;;;;;;;6.60;4.07;;;14.20;99.90;;;;;;5008858;28;20243;-80
2022/05/22 00:47:41;;;;;;;7.82;4.00;;;14.20;99.90;;;;;;5031305;28;20207;-81
2022/05/22 00:50:11;;;;;;;7.47;4.07;;;14.20;99.90;;;;;;5000120;28;20201;-80
2022/05/22 00:52:42;;;;;;;8.60;4.60;;;14.30;99.90;;;;;;4999442;28;20197;-81
2022/05/22 00:55:15;;;;;;;7.07;3.65;;;14.30;99.90;;;;;;4990197;28;20221;-80
2022/05/22 00:57:48;;;;;;;5.25;4.35;;;14.30;99.90;;;;;;5015337;28;20187;-83
2022/05/22 01:00:18;;;;;;;5.03;3.97;;;14.40;99.90;;;;;;5016049;28;20568;-81
2022/05/22 01:05:44;;;;;;;8.80;4.72;;;14.40;99.90;;;;;;5026345;28;20216;-80
2022/05/22 01:08:15;;;;;;;7.32;4.82;;;14.30;99.90;;;;;;4999573;28;20209;-80
2022/05/22 01:10:47;;;;;;;9.52;4.50;;;14.10;99.90;;;;;;5028029;28;20204;-81
2022/05/22 01:13:22;;;;;;;8.40;4.57;;;14.00;99.90;;;;;;5014335;28;20211;-81
2022/05/22 01:15:50;;;;;;;7.03;4.18;;;14.10;99.90;;;;;;5026976;28;20231;-81
2022/05/22 01:18:18;;;;;;;7.72;4.03;;;14.10;99.90;;;;;;5010168;28;20211;-80
2022/05/22 01:20:48;;;;;;;9.57;4.80;;;14.10;99.90;;;;;;5003525;28;20209;-80
2022/05/22 01:23:18;;;;;;;6.25;4.72;;;13.90;99.90;;;;;;4991028;28;20208;-81
2022/05/22 01:25:47;;;;;;;6.80;4.82;;;13.90;99.90;;;;;;4991280;28;20221;-80
2022/05/22 01:28:16;;;;;;;6.45;4.85;;;13.80;99.90;;;;;;5025865;28;20208;-81
2022/05/22 01:30:44;;;;;;;10.90;4.95;;;13.70;99.90;;;;;;5026718;28;20204;-81
2022/05/22 01:33:11;;;;;;;10.50;5.22;;;13.80;99.90;;;;;;4998905;28;20206;-80
2022/05/22 01:35:40;;;;;;;6.30;5.00;;;13.60;99.90;;;;;;4992235;28;20228;-80
2022/05/22 01:38:09;;;;;;;8.65;4.57;;;13.50;99.90;;;;;;5028737;28;20811;-80
2022/05/22 01:40:42;;;;;;;6.63;4.95;;;13.70;99.90;;;;;;5029959;28;20200;-81
2022/05/22 01:43:10;;;;;;;6.65;4.63;;;13.70;99.90;;;;;;4992083;28;20219;-80
2022/05/22 01:45:42;;;;;;;6.63;4.72;;;13.80;99.90;;;;;;5027977;28;20223;-80
2022/05/22 01:48:11;;;;;;;6.35;4.63;;;13.60;99.90;;;;;;4995729;28;20197;-81
2022/05/22 01:50:46;;;;;;;6.70;4.60;;;13.60;99.90;;;;;;5026086;28;20195;-80
2022/05/22 01:53:15;;;;;;;8.57;4.55;;;13.70;99.90;;;;;;5023265;28;20200;-80
2022/05/22 01:55:48;;;;;;;5.95;4.72;;;13.70;99.90;;;;;;5026633;28;20226;-80
2022/05/22 01:58:15;;;;;;;7.00;4.40;;;13.80;99.90;;;;;;4999387;28;20207;-80
2022/05/22 02:00:48;;;;;;;9.10;5.13;;;13.80;99.90;;;;;;4996496;28;20200;-82
2022/05/22 02:03:15;;;;;;;7.60;5.18;;;13.80;99.90;;;;;;4994113;28;20227;-80
2022/05/22 02:05:44;;;;;;;9.85;5.22;;;13.70;99.90;;;;;;4995567;28;20220;-80
2022/05/22 02:08:20;;;;;;;9.55;5.03;;;13.80;99.90;;;;;;5012009;28;20212;-80
2022/05/22 02:10:55;;;;;;;8.48;5.63;;;13.70;99.90;;;;;;4997623;28;20195;-83
2022/05/22 02:13:27;;;;;;;8.18;5.00;;;13.70;99.90;;;;;;5013375;28;20202;-80
2022/05/22 02:15:55;;;;;;;8.48;4.60;;;13.60;99.90;;;;;;5020951;28;20228;-80
2022/05/22 02:18:23;;;;;;;5.75;4.38;;;13.60;99.90;;;;;;4993206;28;20211;-80
2022/05/22 02:20:51;;;;;;;5.50;4.57;;;13.50;99.90;;;;;;5006115;28;20208;-81
2022/05/22 02:23:20;;;;;;;9.98;5.18;;;13.50;99.90;;;;;;4993588;28;20235;-80
2022/05/22 02:25:51;;;;;;;11.13;5.78;;;13.50;99.90;;;;;;5003431;28;20691;-81
2022/05/22 02:28:23;;;;;;;8.90;4.75;;;13.40;99.90;;;;;;5010241;28;20207;-80
2022/05/22 02:30:57;;;;;;;6.22;4.45;;;13.30;99.90;;;;;;5023271;28;20204;-81
2022/05/22 02:33:25;;;;;;;5.97;4.63;;;13.40;99.90;;;;;;5018916;28;20196;-80
2022/05/22 02:36:10;;;;;;;6.63;4.75;;;13.30;99.90;;;;;;4995336;28;20232;-80
2022/05/22 02:38:39;;;;;;;6.75;4.50;;;13.30;99.90;;;;;;4996727;28;20207;-80
2022/05/22 02:41:12;;;;;;;6.32;5.03;;;13.40;99.90;;;;;;5002201;28;20212;-80
2022/05/22 02:43:42;;;;;;;7.72;4.40;;;13.30;99.90;;;;;;5013469;28;20216;-80
2022/05/22 02:46:10;;;;;;;6.00;4.20;;;13.20;99.90;;;;;;5014376;28;20231;-80
2022/05/22 02:48:38;;;;;;;6.72;4.70;;;13.20;99.90;;;;;;5012245;28;20206;-80
2022/05/22 02:51:12;;;;;;;8.60;5.18;;;13.10;99.90;;;;;;4995113;28;20587;-81
2022/05/22 02:53:39;;;;;;;7.00;5.00;;;13.20;99.90;;;;;;5005641;28;20201;-81
2022/05/22 02:56:21;;;;;;;8.88;5.13;;;13.40;99.90;;;;;;5007347;28;20200;-80
2022/05/22 02:59:04;;;;;;;8.52;4.55;;;13.50;99.90;;;;;;4997262;28;20199;-80
2022/05/22 03:01:39;;;;;;;6.95;4.38;;;13.50;99.90;;;;;;4999060;28;20203;-80
2022/05/22 03:04:07;;;;;;;7.45;5.13;;;13.60;99.90;;;;;;4992605;28;20232;-81
2022/05/22 03:06:40;;;;;;;8.68;5.13;;;13.80;99.90;;;;;;5015808;28;20208;-82
2022/05/22 03:09:10;;;;;;;9.00;5.53;;;14.10;99.90;;;;;;5000040;28;20204;-81
2022/05/22 03:11:40;;;;;;;7.53;5.05;;;13.90;99.90;;;;;;5000943;28;20199;-80
2022/05/22 03:14:08;;;;;;;8.85;5.40;;;13.90;99.90;;;;;;5013063;28;20221;-80
2022/05/22 03:16:36;;;;;;;9.50;5.30;;;13.90;99.90;;;;;;4994107;28;20219;-80
2022/05/22 03:19:32;;;;;;;5.30;4.85;;;13.80;99.90;;;;;;4995026;28;20247;-81
2022/05/22 03:22:00;;;;;;;7.78;5.00;;;13.80;99.90;;;;;;4995686;28;20197;-80
2022/05/22 03:24:27;;;;;;;7.90;5.45;;;13.80;99.90;;;;;;5000348;28;20212;-80
2022/05/22 03:26:56;;;;;;;8.45;5.38;;;13.70;99.90;;;;;;5017151;28;20200;-83
2022/05/22 03:29:23;;;;;;;8.27;5.38;;;13.70;99.90;;;;;;5029534;28;20195;-81
2022/05/22 03:31:54;;;;;;;9.48;5.10;;;13.60;99.90;;;;;;5024697;28;20200;-82
2022/05/22 03:34:22;;;;;;;7.53;5.22;;;13.80;99.90;;;;;;5011925;28;20250;-80
2022/05/22 03:36:53;;;;;;;8.02;5.38;;;13.80;99.90;;;;;;5007908;28;20569;-80
2022/05/22 03:39:22;;;;;;;5.85;5.25;;;13.90;99.90;;;;;;4999965;28;20197;-80
2022/05/22 03:41:50;;;;;;;7.70;5.38;;;14.00;99.90;;;;;;4999233;28;20205;-80
2022/05/22 03:44:21;;;;;;;7.03;5.32;;;14.00;99.90;;;;;;4995944;28;20239;-80
2022/05/22 03:46:50;;;;;;;6.50;4.80;;;13.90;99.90;;;;;;4994956;28;20217;-81
2022/05/22 03:49:22;;;;;;;10.48;4.78;;;13.90;99.90;;;;;;4995132;28;20229;-80
2022/05/22 03:51:52;;;;;;;7.22;5.10;;;13.90;99.90;;;;;;5028816;28;20204;-81
2022/05/22 03:54:21;;;;;;;9.63;5.90;;;14.00;99.90;;;;;;5011271;28;20599;-81
2022/05/22 03:56:50;;;;;;;7.30;4.65;;;14.20;99.90;;;;;;4995713;28;20201;-81
2022/05/22 03:59:24;;;;;;;7.63;5.20;;;14.30;99.90;;;;;;5015705;28;20200;-80
2022/05/22 04:01:54;;;;;;;9.07;5.68;;;14.30;99.90;;;;;;4996297;28;20200;-81
2022/05/22 04:04:21;;;;;;;6.68;5.43;;;14.20;99.90;;;;;;5025366;28;20232;-81
2022/05/22 04:06:50;;;;;;;11.00;5.47;;;14.20;99.90;;;;;;5030619;28;20200;-80
2022/05/22 04:09:23;;;;;;;8.88;5.15;;;14.20;99.90;;;;;;5008821;28;20578;-80
2022/05/22 04:12:00;;;;;;;6.57;4.70;;;14.00;99.90;;;;;;5036822;28;20552;-80
2022/05/22 04:14:29;;;;;;;6.03;5.38;;;13.90;99.90;;;;;;5010647;28;20216;-81
2022/05/22 04:17:08;;;;;;;6.15;5.38;;;13.90;99.90;;;;;;5005148;28;20208;-81
2022/05/22 04:19:36;;;;;;;7.10;5.10;;;13.90;99.90;;;;;;5010849;28;20209;-80
2022/05/22 04:22:05;;;;;;;7.43;5.63;;;14.00;99.90;;;;;;5008947;28;20196;-81
2022/05/22 04:27:20;;;;;;;6.35;4.95;;;13.70;99.90;;;;;;5012735;28;20204;-81
2022/05/22 04:29:49;;;;;;;8.55;4.78;;;13.80;99.90;;;;;;5031796;28;20207;-80
2022/05/22 04:32:16;;;;;;;9.50;5.20;;;13.70;99.90;;;;;;5014845;28;20188;-81
2022/05/22 04:34:50;;;;;;;6.13;5.20;;;13.60;99.90;;;;;;4996701;28;20224;-81
2022/05/22 04:37:19;;;;;;;7.60;4.90;;;13.70;99.90;;;;;;5009754;28;20205;-82
2022/05/22 04:39:49;;;;;;;9.35;5.57;;;14.00;99.90;;;;;;5030919;28;20210;-83
2022/05/22 04:42:17;;;;;;;9.85;5.47;;;14.00;99.90;;;;;;5026320;28;20205;-82
2022/05/22 04:44:45;;;;;;;7.57;4.65;;;14.10;99.90;;;;;;4996334;28;20232;-80
2022/05/22 04:47:26;;;;;;;6.63;5.00;;;14.10;99.90;;;;;;4999854;28;20191;-80
2022/05/22 04:50:23;;;;;;;7.88;5.18;;;14.00;99.90;;;;;;4993135;28;20207;-80
2022/05/22 04:53:09;;;;;;;8.52;5.28;;;14.10;99.90;;;;;;4993852;28;20192;-80
2022/05/22 04:55:53;;;;;;;6.22;5.28;;;14.10;99.90;;;;;;5016884;28;20226;-81
2022/05/22 04:58:21;;;;;;;8.52;6.07;;;14.00;99.90;;;;;;5025478;28;20211;-80
2022/05/22 05:00:49;;;;;;;7.47;5.20;;;14.10;99.90;;;;;;4997337;28;20200;-80
2022/05/22 05:03:19;;;;;;;6.97;5.75;;;14.30;99.90;;;;;;5025165;28;20701;-80
2022/05/22 05:06:01;;;;;;;8.05;5.93;;;14.40;99.90;;;;;;4998246;28;20228;-80
2022/05/22 05:08:31;;;;;;;9.07;5.80;;;14.40;99.90;;;;;;5031598;28;20214;-81
2022/05/22 05:11:03;;;;;;;6.10;5.55;;;14.40;99.90;;;;;;5010596;28;20196;-80
2022/05/22 05:13:37;;;;;;;8.43;6.15;;;14.40;99.90;;;;;;4995550;28;20203;-80
2022/05/22 05:16:07;;;;;;;9.50;6.13;;;14.40;99.90;;;;;;4995365;28;20220;-80
2022/05/22 05:18:42;;;;;;;6.88;6.00;;;14.30;99.90;;;;;;4995996;28;20690;-82
2022/05/22 05:21:35;;;;;;;10.23;6.45;;;14.40;99.90;;;;;;5004575;28;20212;-80
2022/05/22 05:24:40;;;;;;;7.80;6.07;;;14.40;99.90;;;;;;4994418;28;20207;-81
2022/05/22 05:47:33;;;;;;;11.73;7.50;;;14.70;99.90;;;;;;4950239;28;20197;-80
2022/05/22 05:50:07;;;;;;;10.82;7.95;;;14.80;99.90;;;;;;4976776;28;20204;-80
2022/05/22 05:52:59;;;;;;;12.27;8.63;;;15.00;99.90;;;;;;4978983;28;20205;-81
2022/05/22 05:55:44;;;;;;;10.40;7.40;;;15.00;99.90;;;;;;4972752;28;20225;-81
2022/05/22 05:58:34;;;;;;;13.45;8.13;;;14.70;99.90;;;;;;4970768;28;20566;-79
2022/05/22 06:01:16;;;;;;;11.05;6.45;;;15.10;99.90;;;;;;4955569;28;20201;-80
2022/05/22 06:03:45;;;;;;;9.77;7.72;;;15.40;99.90;;;;;;4979332;28;20209;-80
2022/05/22 06:06:16;;;;;;;9.15;7.80;;;15.30;99.90;;;;;;4975298;28;20232;-81
2022/05/22 06:08:48;;;;;;;8.48;6.05;;;15.10;99.90;;;;;;4981719;28;20204;-80
2022/05/22 06:11:39;;;;;;;10.77;6.97;;;15.70;99.90;;;;;;4975594;28;20216;-79
2022/05/22 06:14:29;;;;;;;9.23;6.20;;;15.40;99.90;;;;;;4970067;28;20719;-80
2022/05/22 06:16:57;;;;;;;9.88;7.25;;;15.60;99.90;;;;;;4946589;28;20208;-79
2022/05/22 06:22:21;;;;;;;7.15;6.55;;;15.30;99.90;;;;;;4975550;28;20207;-77
2022/05/22 06:24:51;;;;;;;10.73;7.22;;;15.30;99.90;;;;;;4961160;28;20228;-79
2022/05/22 06:27:26;;;;;;;11.85;7.07;;;15.30;99.90;;;;;;4974668;28;20208;-80
2022/05/22 06:29:56;;;;;;;11.43;6.30;;;15.40;99.90;;;;;;4979981;28;20212;-80
2022/05/22 06:32:24;;;;;;;7.50;6.28;;;15.30;99.90;;;;;;4981215;28;20201;-80
2022/05/22 06:35:10;;;;;;;10.82;6.50;;;15.10;99.90;;;;;;4963109;28;20213;-80
2022/05/22 06:37:46;;;;;;;11.18;6.57;;;15.20;99.90;;;;;;4985005;28;20208;-79
2022/05/22 06:40:31;;;;;;;11.25;6.32;;;15.30;99.90;;;;;;4972302;28;20208;-80
2022/05/22 06:43:07;;;;;;;8.02;6.03;;;15.30;99.90;;;;;;4996298;28;20197;-80
2022/05/22 06:45:35;;;;;;;8.27;5.72;;;15.40;99.90;;;;;;4978734;28;20228;-80
2022/05/22 06:48:32;;;;;;;8.15;6.68;;;15.40;99.90;;;;;;4954651;28;20221;-79
2022/05/22 06:51:06;;;;;;;8.45;5.75;;;15.60;99.90;;;;;;4976267;28;20208;-80
2022/05/22 06:53:40;;;;;;;7.85;5.82;;;15.60;99.90;;;;;;4967698;28;20216;-80
2022/05/22 06:56:14;;;;;;;10.85;6.07;;;15.60;99.90;;;;;;4983659;28;20204;-80
2022/05/22 06:58:58;;;;;;;8.20;5.15;;;15.50;99.90;;;;;;4978783;28;20215;-80
2022/05/22 07:01:31;;;;;;;7.78;5.00;;;15.60;99.90;;;;;;4981270;28;20208;-80
2022/05/22 07:04:31;;;;;;;8.25;5.07;;;15.80;99.90;;;;;;4932720;28;20305;-80
2022/05/22 07:07:09;;;;;;;11.80;5.07;;;16.00;99.90;;;;;;4984245;28;20229;-80
2022/05/22 07:09:36;;;;;;;7.55;4.40;;;16.00;99.90;;;;;;4979443;28;20208;-81
2022/05/22 07:12:14;;;;;;;7.25;4.82;;;16.00;99.90;;;;;;4985888;28;20211;-80
2022/05/22 07:15:01;;;;;;;4.85;4.00;;;15.90;99.90;;;;;;4978999;28;20231;-80
2022/05/22 07:17:51;;;;;;;6.15;3.92;;;16.10;99.90;;;;;;4978940;28;20671;-80
2022/05/22 07:20:42;;;;;;;10.07;4.20;;;16.00;99.90;;;;;;4961355;28;20212;-80
2022/05/22 07:23:28;;;;;;;7.45;4.40;;;15.80;99.90;;;;;;4988175;28;20201;-80
2022/05/22 07:26:10;;;;;;;8.18;4.18;;;15.90;99.90;;;;;;4991050;28;20231;-80
2022/05/22 07:28:37;;;;;;;7.60;3.72;;;16.20;99.90;;;;;;4982120;28;20201;-80
2022/05/22 07:31:26;;;;;;;5.82;3.80;;;16.30;99.90;;;;;;4985986;28;20235;-80
2022/05/22 07:34:13;;;;;;;6.20;3.60;;;16.50;99.90;;;;;;4982973;28;20293;-82
2022/05/22 07:37:17;;;;;;;7.38;3.30;;;16.60;99.90;;;;;;5002514;28;20205;-81
2022/05/22 07:40:04;;;;;;;5.22;3.00;;;16.70;99.90;;;;;;4976068;28;20204;-80
2022/05/22 07:42:34;;;;;;;6.20;2.97;;;16.70;99.90;;;;;;4985281;28;20224;-80
2022/05/22 07:45:20;;;;;;;6.15;3.25;;;16.70;99.90;;;;;;4984084;28;20220;-80
2022/05/22 07:48:10;;;;;;;4.75;2.83;;;16.70;99.90;;;;;;4984708;28;20197;-80
2022/05/22 07:50:55;;;;;;;7.60;4.55;;;16.70;99.90;;;;;;4983059;28;20208;-80
2022/05/22 07:53:38;;;;;;;6.00;3.47;;;16.90;99.90;;;;;;4991393;28;20201;-80
2022/05/22 07:56:25;;;;;;;8.25;3.40;;;16.80;99.90;;;;;;4989916;28;20199;-80
2022/05/22 07:59:10;;;;;;;7.70;4.30;;;17.00;99.90;;;;;;4963945;28;20201;-80
2022/05/22 08:01:56;;;;;;;5.47;3.10;;;17.00;99.90;;;;;;4986863;28;20212;-81
2022/05/22 08:04:27;;;;;;;7.63;5.05;;;17.10;99.90;;;;;;4983590;28;20313;-80
2022/05/22 08:07:14;;;;;;;9.25;4.10;;;17.10;99.90;;;;;;4986167;28;20510;-80
2022/05/22 08:10:09;;;;;;;7.65;5.40;;;17.20;99.90;;;;;;4981636;28;20201;-81
2022/05/22 08:12:37;;;;;;;8.55;4.82;;;17.30;99.90;;;;;;4970565;28;20208;-80
2022/05/22 08:15:18;;;;;;;6.22;3.78;;;17.40;99.90;;;;;;4979392;28;20228;-80
2022/05/22 08:17:47;;;;;;;7.88;4.07;;;17.40;99.90;;;;;;4989653;28;20196;-81
2022/05/22 08:20:19;;;;;;;7.97;4.15;;;17.30;99.90;;;;;;4979783;28;20766;-81
2022/05/22 08:23:05;;;;;;;7.07;4.57;;;17.40;99.90;;;;;;4977675;28;20201;-79
2022/05/22 08:25:43;;;;;;;6.07;4.45;;;17.60;99.90;;;;;;4979455;28;20228;-80
2022/05/22 08:28:13;;;;;;;10.40;5.30;;;17.60;99.90;;;;;;4987927;28;20197;-80
2022/05/22 08:30:41;;;;;;;7.90;4.47;;;17.60;99.90;;;;;;4983161;28;20205;-80
2022/05/22 08:33:09;;;;;;;12.00;5.95;;;17.70;99.90;;;;;;4979221;28;20197;-80
2022/05/22 08:35:40;;;;;;;7.57;5.47;;;17.70;99.90;;;;;;4982931;28;20225;-81
2022/05/22 08:38:08;;;;;;;10.05;5.18;;;17.70;99.90;;;;;;4970619;28;20582;-81
2022/05/22 08:40:45;;;;;;;8.35;4.85;;;17.80;99.90;;;;;;4957316;28;20201;-82
2022/05/22 08:43:16;;;;;;;5.47;3.80;;;18.30;99.90;;;;;;4977819;28;20212;-80
2022/05/22 08:45:46;;;;;;;8.40;4.63;;;18.60;99.90;;;;;;4969613;28;20220;-82
2022/05/22 08:48:26;;;;;;;7.85;5.13;;;18.50;99.90;;;;;;4996791;28;20202;-80
2022/05/22 08:50:58;;;;;;;8.48;5.03;;;18.50;99.90;;;;;;4992060;28;20212;-81
2022/05/22 08:53:34;;;;;;;8.02;5.38;;;18.30;99.90;;;;;;4979974;28;20205;-78
2022/05/22 08:59:02;;;;;;;7.88;4.80;;;18.20;99.90;;;;;;4974746;28;20197;-78
2022/05/22 09:01:40;;;;;;;10.35;5.30;;;18.30;99.80;;;;;;4961438;28;20738;-79
2022/05/22 09:04:19;;;;;;;7.57;4.80;;;18.40;99.90;;;;;;4973938;28;20204;-78
2022/05/22 09:07:01;;;;;;;10.73;5.03;;;18.50;99.80;;;;;;4973115;28;20213;-78
2022/05/22 09:09:32;;;;;;;8.73;5.38;;;18.50;99.90;;;;;;4957669;28;20193;-79
2022/05/22 09:12:40;;;;;;;12.65;6.47;;;18.20;99.00;;;;;;4963010;28;20205;-79
2022/05/22 09:15:30;;;;;;;12.15;6.32;;;18.30;99.70;;;;;;4973270;28;20228;-79
2022/05/22 09:18:11;;;;;;;8.75;5.40;;;18.50;99.70;;;;;;4990301;28;20189;-79
2022/05/22 09:20:51;;;;;;;6.68;5.60;;;18.30;99.30;;;;;;4972038;28;20213;-78
2022/05/22 09:23:32;;;;;;;9.93;5.55;;;18.20;98.90;;;;;;4984948;28;20568;-78
2022/05/22 09:26:08;;;;;;;9.10;5.32;;;18.40;99.90;;;;;;4963113;28;20213;-80
2022/05/22 09:28:50;;;;;;;7.25;5.63;;;18.60;99.80;;;;;;4969715;28;20192;-79
2022/05/22 09:31:30;;;;;;;11.68;6.25;;;18.50;99.30;;;;;;4977662;28;20208;-79
2022/05/22 09:34:08;;;;;;;8.88;5.35;;;18.50;99.60;;;;;;4971140;28;20193;-78
2022/05/22 09:40:29;;;;;;;10.25;6.85;;;18.60;98.90;;;;;;4835874;29;20215;-79
2022/05/22 09:43:30;;;;;;;8.23;5.70;;;18.80;99.50;;;;;;4956825;28;20212;-79
2022/05/22 09:46:12;;;;;;;9.13;5.95;;;18.80;99.50;;;;;;4961832;28;20295;-79
2022/05/22 09:48:50;;;;;;;9.40;5.80;;;18.70;99.90;;;;;;4977824;28;20200;-79
2022/05/22 09:51:26;;;;;;;11.15;6.72;;;18.90;99.90;;;;;;4978565;28;20220;-79
2022/05/22 09:54:26;;;;;;;15.52;7.88;;;18.90;99.90;;;;;;4957176;28;20217;-80
2022/05/22 09:57:05;;;;;;;12.98;7.70;;;19.30;99.90;;;;;;4997937;28;20690;-79
2022/05/22 09:59:47;;;;;;;10.85;6.82;;;19.50;99.90;;;;;;4967451;28;20212;-79
2022/05/22 10:02:27;;;;;;;14.57;6.20;;;19.50;99.90;;;;;;4975541;28;20205;-80
2022/05/22 10:05:06;;;;;;;9.35;6.15;;;19.40;99.20;;;;;;4979360;28;20228;-79
2022/05/22 10:07:43;;;;;;;9.45;5.43;;;19.50;99.80;;;;;;4968903;28;20218;-79
2022/05/22 10:10:20;;;;;;;7.93;5.40;;;19.70;98.70;;;;;;4981243;28;20211;-80
2022/05/22 10:12:58;;;;;;;7.13;4.70;;;19.50;98.80;;;;;;4982485;28;20227;-78
2022/05/22 10:15:40;;;;;;;7.53;4.80;;;19.80;98.10;;;;;;4968778;28;20221;-79
2022/05/22 10:18:50;;;;;;;9.25;5.63;;;19.80;98.90;;;;;;4969606;28;20196;-79
2022/05/22 10:21:42;;;;;;;9.43;5.13;;;20.00;97.50;;;;;;4968925;28;20218;-79
2022/05/22 10:24:22;;;;;;;10.57;4.68;;;20.00;97.70;;;;;;4969615;28;20204;-79
2022/05/22 10:27:15;;;;;;;8.55;5.10;;;20.20;96.80;;;;;;4968443;28;20220;-79
2022/05/22 10:29:48;;;;;;;7.20;4.68;;;20.40;96.30;;;;;;4955474;28;20678;-80
2022/05/22 10:32:21;;;;;;;9.73;5.95;;;20.30;96.60;;;;;;4962032;28;20216;-80
2022/05/22 10:34:54;;;;;;;8.38;4.85;;;20.40;96.10;;;;;;4969796;28;20243;-80
2022/05/22 10:37:27;;;;;;;9.88;5.03;;;20.20;95.80;;;;;;4967205;28;20192;-80
2022/05/22 10:39:57;;;;;;;10.88;5.80;;;20.00;95.80;;;;;;4969253;28;20217;-80
2022/05/22 10:42:47;;;;;;;9.02;5.50;;;20.20;95.80;;;;;;4972159;28;20200;-79
2022/05/22 10:45:24;;;;;;;9.02;5.32;;;20.30;95.80;;;;;;4972890;28;20208;-79
2022/05/22 10:47:52;;;;;;;8.60;5.47;;;20.50;95.10;;;;;;4986092;28;20562;-80
2022/05/22 10:50:24;;;;;;;8.88;5.35;;;20.90;94.80;;;;;;4968449;28;20218;-80
2022/05/22 10:52:51;;;;;;;10.23;5.45;;;20.60;93.80;;;;;;4965621;28;20550;-80
2022/05/22 10:55:37;;;;;;;9.35;4.72;;;20.70;94.10;;;;;;4977216;28;20237;-79
2022/05/22 10:58:23;;;;;;;11.23;5.13;;;20.90;94.00;;;;;;4974369;28;20201;-80
2022/05/22 11:00:58;;;;;;;14.73;6.10;;;21.10;93.80;;;;;;4978595;28;20683;-80
2022/05/22 11:03:27;;;;;;;8.55;5.25;;;21.10;92.90;;;;;;4977030;28;20201;-80
2022/05/22 11:05:55;;;;;;;9.95;5.18;;;20.80;93.00;;;;;;4979484;28;20244;-80
2022/05/22 11:08:28;;;;;;;9.35;5.30;;;20.80;94.00;;;;;;4978999;28;20232;-80
2022/05/22 11:10:57;;;;;;;8.10;4.93;;;20.80;94.50;;;;;;4984731;28;20214;-80
2022/05/22 11:13:26;;;;;;;10.13;5.03;;;20.50;95.20;;;;;;4971298;28;20223;-80
2022/05/22 11:16:12;;;;;;;5.80;4.72;;;20.30;95.60;;;;;;4973391;28;20228;-80
2022/05/22 11:18:40;;;;;;;8.52;5.38;;;20.30;95.10;;;;;;4969269;28;20193;-80
2022/05/22 11:21:18;;;;;;;9.82;4.75;;;20.80;94.60;;;;;;4973727;28;20190;-79
2022/05/22 11:24:04;;;;;;;11.27;6.70;;;20.90;94.80;;;;;;4960872;28;20192;-80
2022/05/22 11:26:39;;;;;;;7.22;4.80;;;20.50;94.20;;;;;;4982665;28;20208;-81
2022/05/22 11:29:21;;;;;;;10.35;5.57;;;21.00;94.20;;;;;;4964390;28;20342;-80
2022/05/22 11:32:00;;;;;;;8.25;5.05;;;20.90;93.50;;;;;;4993125;28;20201;-80
2022/05/22 11:34:51;;;;;;;9.77;6.25;;;21.00;94.00;;;;;;4974178;28;20236;-80
2022/05/22 11:37:29;;;;;;;10.60;6.53;;;21.10;91.90;;;;;;4970250;28;20201;-80
2022/05/22 11:40:09;;;;;;;10.27;6.95;;;21.50;92.30;;;;;;4954906;28;20223;-80
2022/05/22 11:42:39;;;;;;;6.93;5.00;;;21.70;90.30;;;;;;4980991;28;20220;-80
2022/05/22 11:45:32;;;;;;;8.45;6.22;;;21.80;92.00;;;;;;4974552;28;20925;-81
2022/05/22 11:48:12;;;;;;;9.57;6.13;;;21.70;91.80;;;;;;4982325;28;20213;-80
2022/05/22 11:50:47;;;;;;;9.93;5.82;;;21.70;91.40;;;;;;4981074;28;20201;-81
2022/05/22 11:53:37;;;;;;;12.13;6.65;;;21.90;92.30;;;;;;4971717;28;20575;-80
2022/05/22 11:56:23;;;;;;;9.02;6.35;;;21.80;92.00;;;;;;4970627;28;20593;-80
2022/05/22 11:59:16;;;;;;;8.32;6.15;;;22.00;92.50;;;;;;4971592;28;20209;-80
2022/05/22 12:01:56;;;;;;;9.38;6.10;;;21.70;91.70;;;;;;4970153;28;20205;-80
2022/05/22 12:04:45;;;;;;;7.68;5.90;;;21.50;90.90;;;;;;4974757;28;20221;-80
2022/05/22 12:07:56;;;;;;;7.43;5.18;;;21.60;91.90;;;;;;4976341;28;20711;-80
2022/05/22 12:10:30;;;;;;;9.98;5.55;;;21.60;91.70;;;;;;4946851;28;20201;-80
2022/05/22 12:13:06;;;;;;;10.82;6.50;;;22.20;92.20;;;;;;4971191;28;22502;-81
2022/05/22 12:15:41;;;;;;;9.98;6.15;;;22.50;90.20;;;;;;4967964;28;20239;-80
2022/05/22 12:18:35;;;;;;;8.20;5.32;;;22.30;90.40;;;;;;4978168;28;20212;-81
2022/05/22 12:21:13;;;;;;;7.10;5.50;;;22.70;90.60;;;;;;4961059;28;20201;-81
2022/05/22 12:23:53;;;;;;;8.60;5.30;;;23.10;87.20;;;;;;4979307;28;20197;-81
2022/05/22 12:26:23;;;;;;;10.02;6.70;;;23.00;90.40;;;;;;4958308;28;20578;-80
2022/05/22 12:28:53;;;;;;;9.73;5.88;;;22.20;89.90;;;;;;4973638;28;20225;-81
2022/05/22 12:31:24;;;;;;;9.52;6.25;;;22.60;90.00;;;;;;4971241;28;20734;-80
2022/05/22 12:33:53;;;;;;;8.55;6.47;;;22.30;89.00;;;;;;4981604;28;20667;-80
2022/05/22 12:36:29;;;;;;;7.93;6.30;;;22.30;85.90;;;;;;4977700;28;20676;-80
2022/05/22 12:39:03;;;;;;;7.28;5.35;;;22.90;86.60;;;;;;4962353;28;20235;-81
2022/05/22 12:41:40;;;;;;;10.75;6.10;;;23.30;86.50;;;;;;4978058;28;20572;-81
2022/05/22 12:44:11;;;;;;;6.15;5.45;;;23.30;87.30;;;;;;4967247;28;20231;-81
2022/05/22 12:46:39;;;;;;;7.75;5.20;;;23.30;85.00;;;;;;4978896;28;20204;-81
2022/05/22 12:49:19;;;;;;;8.10;5.97;;;23.60;85.00;;;;;;4971859;28;20236;-81
2022/05/22 12:52:05;;;;;;;7.80;5.85;;;23.80;82.30;;;;;;4986966;28;20211;-81
2022/05/22 12:54:34;;;;;;;10.55;6.40;;;23.20;81.70;;;;;;4977399;28;20231;-81
2022/05/22 12:57:16;;;;;;;9.00;5.75;;;23.50;80.20;;;;;;4978050;28;20613;-81
2022/05/22 12:59:58;;;;;;;9.45;6.65;;;23.60;79.50;;;;;;4967488;28;20556;-81
2022/05/22 13:02:37;;;;;;;8.18;5.68;;;23.50;81.30;;;;;;4964959;28;20212;-81
2022/05/22 13:05:15;;;;;;;7.57;5.03;;;23.90;78.90;;;;;;4965414;28;20221;-81
2022/05/22 13:07:50;;;;;;;8.35;5.65;;;24.00;78.30;;;;;;4950065;28;20203;-81
2022/05/22 13:10:30;;;;;;;8.88;5.20;;;23.90;78.40;;;;;;4961515;28;20208;-81
2022/05/22 13:13:03;;;;;;;7.65;5.50;;;23.50;80.00;;;;;;4957537;28;20200;-81
2022/05/22 13:15:33;;;;;;;9.60;6.28;;;23.80;80.90;;;;;;4981324;28;20249;-81
2022/05/22 13:18:12;;;;;;;10.43;5.80;;;23.40;76.90;;;;;;4956205;28;20204;-81
2022/05/22 13:20:53;;;;;;;8.32;5.63;;;23.10;80.40;;;;;;4979354;28;20209;-81
2022/05/22 13:23:33;;;;;;;7.70;5.70;;;22.60;83.90;;;;;;4971004;28;20212;-81
2022/05/22 13:26:03;;;;;;;8.98;5.70;;;23.30;82.50;;;;;;4967864;28;20216;-81
2022/05/22 13:28:34;;;;;;;8.07;5.15;;;23.60;79.00;;;;;;4968096;28;20216;-80
2022/05/22 13:31:20;;;;;;;9.73;5.20;;;23.40;78.70;;;;;;4975059;28;20201;-81
2022/05/22 13:33:52;;;;;;;6.93;5.65;;;24.00;76.60;;;;;;4953094;28;20219;-81
2022/05/22 13:36:25;;;;;;;7.35;4.97;;;24.20;71.10;;;;;;4975549;28;20206;-82
2022/05/22 13:38:56;;;;;;;10.00;7.65;;;24.80;71.20;;;;;;4966640;28;20208;-81
2022/05/22 13:41:47;;;;;;;8.85;5.78;;;24.80;70.10;;;;;;4970538;28;20205;-81
2022/05/22 13:44:50;;;;;;;5.93;4.63;;;24.90;72.50;;;;;;4985440;28;20271;-82
2022/05/22 13:47:40;;;;;;;7.45;4.85;;;24.90;73.40;;;;;;4934843;28;20216;-81
2022/05/22 13:53:18;;;;;;;6.13;4.43;;;24.90;72.90;;;;;;4971892;28;20224;-81
2022/05/22 13:55:50;;;;;;;6.05;4.60;;;24.60;72.20;;;;;;4974015;28;20220;-81
2022/05/22 13:58:24;;;;;;;7.47;5.13;;;24.70;70.10;;;;;;4967332;28;20205;-81
2022/05/22 14:00:56;;;;;;;6.45;4.68;;;24.40;68.80;;;;;;4975906;28;20212;-81
2022/05/22 14:03:29;;;;;;;8.43;5.72;;;23.90;70.40;;;;;;4973446;28;20200;-81
2022/05/22 14:06:01;;;;;;;8.63;5.93;;;23.80;71.80;;;;;;4969126;28;20239;-81
2022/05/22 14:08:34;;;;;;;7.75;5.63;;;23.90;76.30;;;;;;4972112;28;20201;-80